YTS weather

Timmins/Victor M. Power
Timmins, Ontario, Canada

Public forecast

Using degrees Celsius for public forecast. Weather courtesy of forecast.io.

Current aviation weather report (METAR) for Timmins/Victor M. Power

Retrieved 2019/10/15 20:00 UTC (20 minutes ago):

CYTS 152000Z 29004KT 250V320 15SM SCT025 BKN030 OVC037 08/03 A2989 RMK SC4SC2SC2 SLP136

Aviation forecast (TAF) for Timmins/Victor M. Power

Retrieved 2019/10/15 20:45 UTC (0 seconds ago):

TAF CYTS 151941Z 1520/1608 27005KT P6SM OVC030 TEMPO 1520/1606 OVC020 BECMG 1521/1523 VRB03KT FM160600 04005KT P6SM BKN030 TEMPO 1606/1608 BKN008 OVC020 PROB30 1606/1608 2SM BR BKN004 OVC008 RMK NXT FCST BY 160200Z